sensor_id;sensor_type;location;lat;lon;timestamp;pressure;altitude;pressure_sealevel;temperature;humidity
74552;BME280;63025;55.472;38.432;2022-11-11T00:02:09;100613.25;;;8.61;77.41
74552;BME280;63025;55.472;38.432;2022-11-11T00:04:53;100609.94;;;8.59;77.25
74552;BME280;63025;55.472;38.432;2022-11-11T00:07:38;100603.56;;;8.60;77.63
74552;BME280;63025;55.472;38.432;2022-11-11T00:10:22;100604.94;;;8.56;77.93
74552;BME280;63025;55.472;38.432;2022-11-11T00:13:07;100600.75;;;8.54;78.04
74552;BME280;63025;55.472;38.432;2022-11-11T00:15:51;100605.09;;;8.55;78.28
74552;BME280;63025;55.472;38.432;2022-11-11T00:18:36;100611.66;;;8.52;78.48
74552;BME280;63025;55.472;38.432;2022-11-11T00:21:40;100606.94;;;8.54;78.15
74552;BME280;63025;55.472;38.432;2022-11-11T00:24:33;100606.94;;;8.54;78.11
74552;BME280;63025;55.472;38.432;2022-11-11T00:27:37;100603.44;;;8.54;78.15
74552;BME280;63025;55.472;38.432;2022-11-11T00:30:22;100601.31;;;8.49;78.43
74552;BME280;63025;55.472;38.432;2022-11-11T00:33:06;100602.16;;;8.50;78.27
74552;BME280;63025;55.472;38.432;2022-11-11T00:35:52;100596.41;;;8.53;78.29
74552;BME280;63025;55.472;38.432;2022-11-11T00:38:37;100591.63;;;8.48;78.40
74552;BME280;63025;55.472;38.432;2022-11-11T00:41:32;100595.97;;;8.49;78.20
74552;BME280;63025;55.472;38.432;2022-11-11T00:44:16;100602.16;;;8.50;78.68
74552;BME280;63025;55.472;38.432;2022-11-11T00:47:01;100600.94;;;8.52;78.44
74552;BME280;63025;55.472;38.432;2022-11-11T00:50:08;100598.81;;;8.48;79.03
74552;BME280;63025;55.472;38.432;2022-11-11T00:53:14;100598.16;;;8.45;78.71
74552;BME280;63025;55.472;38.432;2022-11-11T00:55:59;100601.38;;;8.41;78.80
74552;BME280;63025;55.472;38.432;2022-11-11T00:58:44;100590.22;;;8.37;79.36
74552;BME280;63025;55.472;38.432;2022-11-11T01:01:28;100594.56;;;8.38;79.92
74552;BME280;63025;55.472;38.432;2022-11-11T01:04:13;100592.88;;;8.37;80.26
74552;BME280;63025;55.472;38.432;2022-11-11T01:06:57;100598.78;;;8.33;80.32
74552;BME280;63025;55.472;38.432;2022-11-11T01:09:41;100595.63;;;8.29;80.69
74552;BME280;63025;55.472;38.432;2022-11-11T01:12:26;100593.81;;;8.22;81.38
74552;BME280;63025;55.472;38.432;2022-11-11T01:15:10;100593.81;;;8.22;80.84
74552;BME280;63025;55.472;38.432;2022-11-11T01:17:55;100597.22;;;8.16;81.73
74552;BME280;63025;55.472;38.432;2022-11-11T01:20:39;100592.06;;;8.14;81.74
74552;BME280;63025;55.472;38.432;2022-11-11T01:23:25;100588.25;;;8.08;82.48
74552;BME280;63025;55.472;38.432;2022-11-11T01:26:21;100587.44;;;8.08;82.29
74552;BME280;63025;55.472;38.432;2022-11-11T01:29:05;100587.97;;;8.03;82.75
74552;BME280;63025;55.472;38.432;2022-11-11T01:31:50;100587.28;;;8.01;83.16
74552;BME280;63025;55.472;38.432;2022-11-11T01:34:34;100577.44;;;8.02;83.45
74552;BME280;63025;55.472;38.432;2022-11-11T01:37:18;100585.00;;;7.98;83.82
74552;BME280;63025;55.472;38.432;2022-11-11T01:40:03;100579.66;;;7.98;83.49
74552;BME280;63025;55.472;38.432;2022-11-11T01:42:53;100581.19;;;7.93;84.13
74552;BME280;63025;55.472;38.432;2022-11-11T01:45:59;100586.72;;;7.91;84.09
74552;BME280;63025;55.472;38.432;2022-11-11T01:48:53;100581.72;;;7.88;84.73
74552;BME280;63025;55.472;38.432;2022-11-11T01:55:14;100592.06;;;7.91;84.56
74552;BME280;63025;55.472;38.432;2022-11-11T01:58:08;100589.03;;;7.94;84.44
74552;BME280;63025;55.472;38.432;2022-11-11T02:00:56;100590.38;;;7.90;84.13
74552;BME280;63025;55.472;38.432;2022-11-11T02:03:42;100597.97;;;7.87;84.41
74552;BME280;63025;55.472;38.432;2022-11-11T02:06:53;100588.44;;;7.84;84.57
74552;BME280;63025;55.472;38.432;2022-11-11T02:09:41;100596.66;;;7.83;85.03
74552;BME280;63025;55.472;38.432;2022-11-11T02:12:29;100591.94;;;7.85;84.71
74552;BME280;63025;55.472;38.432;2022-11-11T02:15:52;100596.47;;;7.84;85.00
74552;BME280;63025;55.472;38.432;2022-11-11T02:18:36;100588.97;;;7.80;85.06
74552;BME280;63025;55.472;38.432;2022-11-11T02:21:49;100589.44;;;7.83;84.77
74552;BME280;63025;55.472;38.432;2022-11-11T02:24:35;100587.31;;;7.79;85.21
74552;BME280;63025;55.472;38.432;2022-11-11T02:27:23;100576.47;;;7.72;85.24
74552;BME280;63025;55.472;38.432;2022-11-11T02:30:08;100585.16;;;7.74;85.62
74552;BME280;63025;55.472;38.432;2022-11-11T02:32:58;100583.50;;;7.73;85.15
74552;BME280;63025;55.472;38.432;2022-11-11T02:35:45;100586.66;;;7.77;85.49
74552;BME280;63025;55.472;38.432;2022-11-11T02:38:42;100585.16;;;7.74;85.15
74552;BME280;63025;55.472;38.432;2022-11-11T02:41:27;100584.50;;;7.72;85.06
74552;BME280;63025;55.472;38.432;2022-11-11T02:44:30;100589.84;;;7.72;85.33
74552;BME280;63025;55.472;38.432;2022-11-11T02:47:14;100589.03;;;7.71;85.21
74552;BME280;63025;55.472;38.432;2022-11-11T02:49:59;100585.91;;;7.68;85.64
74552;BME280;63025;55.472;38.432;2022-11-11T02:52:43;100586.19;;;7.73;85.90
74552;BME280;63025;55.472;38.432;2022-11-11T02:55:27;100579.34;;;7.70;85.78
74552;BME280;63025;55.472;38.432;2022-11-11T02:58:12;100582.56;;;7.66;85.54
74552;BME280;63025;55.472;38.432;2022-11-11T03:00:57;100577.66;;;7.69;85.39
74552;BME280;63025;55.472;38.432;2022-11-11T03:03:42;100584.84;;;7.69;85.61
74552;BME280;63025;55.472;38.432;2022-11-11T03:06:26;100578.88;;;7.67;85.57
74552;BME280;63025;55.472;38.432;2022-11-11T03:09:10;100587.53;;;7.69;86.08
74552;BME280;63025;55.472;38.432;2022-11-11T03:11:54;100585.69;;;7.69;85.88
74552;BME280;63025;55.472;38.432;2022-11-11T03:14:39;100590.22;;;7.69;85.56
74552;BME280;63025;55.472;38.432;2022-11-11T03:17:23;100580.06;;;7.64;85.57
74552;BME280;63025;55.472;38.432;2022-11-11T03:20:23;100584.41;;;7.65;86.01
74552;BME280;63025;55.472;38.432;2022-11-11T03:23:26;100575.88;;;7.62;85.81
74552;BME280;63025;55.472;38.432;2022-11-11T03:26:10;100576.22;;;7.59;85.61
74552;BME280;63025;55.472;38.432;2022-11-11T03:28:55;100576.22;;;7.59;85.50
74552;BME280;63025;55.472;38.432;2022-11-11T03:31:39;100579.09;;;7.57;85.72
74552;BME280;63025;55.472;38.432;2022-11-11T03:34:24;100583.63;;;7.57;85.58
74552;BME280;63025;55.472;38.432;2022-11-11T03:37:09;100576.94;;;7.53;85.95
74552;BME280;63025;55.472;38.432;2022-11-11T03:40:13;100583.97;;;7.54;86.13
74552;BME280;63025;55.472;38.432;2022-11-11T03:42:57;100579.09;;;7.57;85.82
74552;BME280;63025;55.472;38.432;2022-11-11T03:45:42;100595.66;;;7.53;85.82
74552;BME280;63025;55.472;38.432;2022-11-11T03:48:31;100594.00;;;7.52;85.90
74552;BME280;63025;55.472;38.432;2022-11-11T03:51:15;100585.69;;;7.47;85.97
74552;BME280;63025;55.472;38.432;2022-11-11T03:53:59;100592.38;;;7.43;86.11
74552;BME280;63025;55.472;38.432;2022-11-11T03:56:44;100584.19;;;7.44;85.80
74552;BME280;63025;55.472;38.432;2022-11-11T03:59:28;100599.41;;;7.44;85.99
74552;BME280;63025;55.472;38.432;2022-11-11T04:02:12;100599.91;;;7.47;86.00
74552;BME280;63025;55.472;38.432;2022-11-11T04:05:32;100588.00;;;7.50;85.68
74552;BME280;63025;55.472;38.432;2022-11-11T04:08:35;100588.16;;;7.48;85.66
74552;BME280;63025;55.472;38.432;2022-11-11T04:11:41;100592.56;;;7.41;85.57
74552;BME280;63025;55.472;38.432;2022-11-11T04:14:27;100597.06;;;7.41;86.04
74552;BME280;63025;55.472;38.432;2022-11-11T04:17:30;100595.06;;;7.43;85.45
74552;BME280;63025;55.472;38.432;2022-11-11T04:20:15;100601.72;;;7.47;85.39
74552;BME280;63025;55.472;38.432;2022-11-11T04:23:18;100595.41;;;7.40;85.43
74552;BME280;63025;55.472;38.432;2022-11-11T04:26:02;100588.38;;;7.38;85.53
74552;BME280;63025;55.472;38.432;2022-11-11T04:28:46;100595.22;;;7.41;85.24
74552;BME280;63025;55.472;38.432;2022-11-11T04:31:49;100607.09;;;7.38;85.76
74552;BME280;63025;55.472;38.432;2022-11-11T04:34:57;100610.44;;;7.41;85.56
74552;BME280;63025;55.472;38.432;2022-11-11T04:37:46;100597.28;;;7.31;85.48
74552;BME280;63025;55.472;38.432;2022-11-11T04:40:32;100610.50;;;7.32;85.58
74552;BME280;63025;55.472;38.432;2022-11-11T04:43:35;100604.13;;;7.33;86.09
74552;BME280;63025;55.472;38.432;2022-11-11T04:46:40;100614.03;;;7.25;85.99
74552;BME280;63025;55.472;38.432;2022-11-11T04:49:24;100620.22;;;7.25;85.88
74552;BME280;63025;55.472;38.432;2022-11-11T04:52:09;100617.53;;;7.25;85.85
74552;BME280;63025;55.472;38.432;2022-11-11T04:55:12;100619.38;;;7.25;86.50
74552;BME280;63025;55.472;38.432;2022-11-11T04:58:17;100618.38;;;7.18;86.73
74552;BME280;63025;55.472;38.432;2022-11-11T05:01:02;100630.47;;;7.14;86.69
74552;BME280;63025;55.472;38.432;2022-11-11T05:03:46;100620.78;;;7.13;87.01
74552;BME280;63025;55.472;38.432;2022-11-11T05:06:30;100627.63;;;7.15;87.11
74552;BME280;63025;55.472;38.432;2022-11-11T05:09:34;100634.78;;;7.15;87.08
74552;BME280;63025;55.472;38.432;2022-11-11T05:12:18;100639.59;;;7.19;87.21
74552;BME280;63025;55.472;38.432;2022-11-11T05:15:02;100653.97;;;7.18;86.89
74552;BME280;63025;55.472;38.432;2022-11-11T05:18:07;100648.63;;;7.18;87.15
74552;BME280;63025;55.472;38.432;2022-11-11T05:21:21;100649.16;;;7.14;87.05
74552;BME280;63025;55.472;38.432;2022-11-11T05:24:06;100646.97;;;7.17;86.93
74552;BME280;63025;55.472;38.432;2022-11-11T05:27:09;100652.31;;;7.17;87.11
74552;BME280;63025;55.472;38.432;2022-11-11T05:29:54;100647.78;;;7.18;87.07
74552;BME280;63025;55.472;38.432;2022-11-11T05:32:39;100647.28;;;7.22;87.04
74552;BME280;63025;55.472;38.432;2022-11-11T05:35:23;100634.44;;;7.18;87.55
74552;BME280;63025;55.472;38.432;2022-11-11T05:38:08;100639.97;;;7.08;87.31
74552;BME280;63025;55.472;38.432;2022-11-11T05:41:06;100644.00;;;7.12;87.69
74552;BME280;63025;55.472;38.432;2022-11-11T05:43:51;100641.97;;;7.14;87.48
74552;BME280;63025;55.472;38.432;2022-11-11T05:46:35;100632.75;;;7.17;87.25
74552;BME280;63025;55.472;38.432;2022-11-11T05:49:19;100632.97;;;7.15;87.60
74552;BME280;63025;55.472;38.432;2022-11-11T05:52:05;100629.63;;;7.13;87.64
74552;BME280;63025;55.472;38.432;2022-11-11T05:54:49;100630.47;;;7.14;87.37
74552;BME280;63025;55.472;38.432;2022-11-11T05:57:34;100632.97;;;7.15;87.13
74552;BME280;63025;55.472;38.432;2022-11-11T06:00:18;100629.97;;;7.10;87.61
74552;BME280;63025;55.472;38.432;2022-11-11T06:03:03;100629.28;;;7.16;87.19
74552;BME280;63025;55.472;38.432;2022-11-11T06:05:49;100627.13;;;7.12;87.83
74552;BME280;63025;55.472;38.432;2022-11-11T06:08:33;100635.44;;;7.17;87.43
74552;BME280;63025;55.472;38.432;2022-11-11T06:11:17;100643.66;;;7.15;87.13
74552;BME280;63025;55.472;38.432;2022-11-11T06:14:02;100650.16;;;7.13;87.80
74552;BME280;63025;55.472;38.432;2022-11-11T06:16:47;100646.66;;;7.12;87.47
74552;BME280;63025;55.472;38.432;2022-11-11T06:19:32;100647.84;;;7.10;87.28
74552;BME280;63025;55.472;38.432;2022-11-11T06:22:16;100645.50;;;7.15;87.78
74552;BME280;63025;55.472;38.432;2022-11-11T06:25:21;100651.84;;;7.14;87.37
74552;BME280;63025;55.472;38.432;2022-11-11T06:28:24;100648.84;;;7.09;87.26
74552;BME280;63025;55.472;38.432;2022-11-11T06:31:10;100661.53;;;7.15;87.38
74552;BME280;63025;55.472;38.432;2022-11-11T06:33:55;100660.31;;;7.17;87.81
74552;BME280;63025;55.472;38.432;2022-11-11T06:36:39;100657.31;;;7.20;87.29
74552;BME280;63025;55.472;38.432;2022-11-11T06:39:23;100658.03;;;7.14;87.82
74552;BME280;63025;55.472;38.432;2022-11-11T06:42:07;100662.88;;;7.11;88.05
74552;BME280;63025;55.472;38.432;2022-11-11T06:44:52;100663.19;;;7.16;87.94
74552;BME280;63025;55.472;38.432;2022-11-11T06:47:36;100661.66;;;7.21;88.22
74552;BME280;63025;55.472;38.432;2022-11-11T06:50:21;100658.66;;;7.24;87.74
74552;BME280;63025;55.472;38.432;2022-11-11T06:53:13;100663.63;;;7.27;87.26
74552;BME280;63025;55.472;38.432;2022-11-11T06:55:57;100666.00;;;7.22;87.53
74552;BME280;63025;55.472;38.432;2022-11-11T06:58:41;100669.34;;;7.24;87.61
74552;BME280;63025;55.472;38.432;2022-11-11T07:01:26;100667.34;;;7.26;87.46
74552;BME280;63025;55.472;38.432;2022-11-11T07:04:10;100677.38;;;7.24;87.17
74552;BME280;63025;55.472;38.432;2022-11-11T07:06:55;100665.31;;;7.28;87.75
74552;BME280;63025;55.472;38.432;2022-11-11T07:09:39;100666.97;;;7.29;87.17
74552;BME280;63025;55.472;38.432;2022-11-11T07:12:23;100659.94;;;7.28;87.10
74552;BME280;63025;55.472;38.432;2022-11-11T07:15:08;100675.50;;;7.33;87.04
74552;BME280;63025;55.472;38.432;2022-11-11T07:17:52;100678.66;;;7.36;87.15
74552;BME280;63025;55.472;38.432;2022-11-11T07:20:37;100682.81;;;7.39;87.37
74552;BME280;63025;55.472;38.432;2022-11-11T07:23:21;100684.00;;;7.36;86.91
74552;BME280;63025;55.472;38.432;2022-11-11T07:26:05;100678.00;;;7.34;87.43
74552;BME280;63025;55.472;38.432;2022-11-11T07:28:50;100678.84;;;7.35;86.98
74552;BME280;63025;55.472;38.432;2022-11-11T07:31:34;100679.50;;;7.37;87.42
74552;BME280;63025;55.472;38.432;2022-11-11T07:34:18;100683.97;;;7.45;87.20
74552;BME280;63025;55.472;38.432;2022-11-11T07:37:02;100676.63;;;7.47;87.22
74552;BME280;63025;55.472;38.432;2022-11-11T07:39:47;100678.75;;;7.51;87.30
74552;BME280;63025;55.472;38.432;2022-11-11T07:42:35;100676.06;;;7.51;86.86
74552;BME280;63025;55.472;38.432;2022-11-11T07:45:19;100679.41;;;7.53;87.25
74552;BME280;63025;55.472;38.432;2022-11-11T07:48:04;100682.44;;;7.50;87.06
74552;BME280;63025;55.472;38.432;2022-11-11T07:50:50;100674.78;;;7.47;87.24
74552;BME280;63025;55.472;38.432;2022-11-11T07:53:35;100677.91;;;7.51;87.22
74552;BME280;63025;55.472;38.432;2022-11-11T07:56:20;100671.41;;;7.53;87.04
74552;BME280;63025;55.472;38.432;2022-11-11T07:59:04;100676.06;;;7.51;87.36
74552;BME280;63025;55.472;38.432;2022-11-11T08:01:48;100679.41;;;7.53;87.58
74552;BME280;63025;55.472;38.432;2022-11-11T08:04:33;100681.75;;;7.56;87.53
74552;BME280;63025;55.472;38.432;2022-11-11T08:07:17;100684.06;;;7.59;87.56
74552;BME280;63025;55.472;38.432;2022-11-11T08:10:02;100686.28;;;7.56;87.74
74552;BME280;63025;55.472;38.432;2022-11-11T08:12:53;100683.44;;;7.57;87.85
74552;BME280;63025;55.472;38.432;2022-11-11T08:15:56;100695.28;;;7.55;87.77
74552;BME280;63025;55.472;38.432;2022-11-11T08:18:41;100702.63;;;7.61;87.88
74552;BME280;63025;55.472;38.432;2022-11-11T08:21:26;100697.59;;;7.66;87.58
74552;BME280;63025;55.472;38.432;2022-11-11T08:24:10;100691.63;;;7.56;88.22
74552;BME280;63025;55.472;38.432;2022-11-11T08:26:55;100691.75;;;7.62;87.95
74552;BME280;63025;55.472;38.432;2022-11-11T08:29:39;100704.63;;;7.67;88.53
74552;BME280;63025;55.472;38.432;2022-11-11T08:32:23;100695.09;;;7.64;87.90
74552;BME280;63025;55.472;38.432;2022-11-11T08:35:08;100695.03;;;7.72;87.81
74552;BME280;63025;55.472;38.432;2022-11-11T08:37:52;100697.72;;;7.72;87.75
74552;BME280;63025;55.472;38.432;2022-11-11T08:40:37;100695.03;;;7.72;88.02
74552;BME280;63025;55.472;38.432;2022-11-11T08:43:21;100689.56;;;7.66;87.97
74552;BME280;63025;55.472;38.432;2022-11-11T08:46:06;100677.84;;;7.67;88.61
74552;BME280;63025;55.472;38.432;2022-11-11T08:48:50;100681.66;;;7.72;88.07
74552;BME280;63025;55.472;38.432;2022-11-11T08:51:34;100676.13;;;7.74;88.20
74552;BME280;63025;55.472;38.432;2022-11-11T08:54:19;100674.47;;;7.73;88.05
74552;BME280;63025;55.472;38.432;2022-11-11T08:57:03;100680.16;;;7.78;88.38
74552;BME280;63025;55.472;38.432;2022-11-11T08:59:47;100679.94;;;7.80;87.86
74552;BME280;63025;55.472;38.432;2022-11-11T09:02:32;100685.44;;;7.86;87.89
74552;BME280;63025;55.472;38.432;2022-11-11T09:05:16;100680.53;;;7.90;88.11
74552;BME280;63025;55.472;38.432;2022-11-11T09:08:01;100688.41;;;7.91;87.77
74552;BME280;63025;55.472;38.432;2022-11-11T09:10:45;100676.69;;;7.92;87.92
74552;BME280;63025;55.472;38.432;2022-11-11T09:13:30;100676.34;;;7.95;88.23
74552;BME280;63025;55.472;38.432;2022-11-11T09:16:14;100674.34;;;7.97;87.69
74552;BME280;63025;55.472;38.432;2022-11-11T09:18:58;100667.16;;;7.98;88.28
74552;BME280;63025;55.472;38.432;2022-11-11T09:21:42;100669.94;;;8.04;87.77
74552;BME280;63025;55.472;38.432;2022-11-11T09:24:27;100678.44;;;8.08;87.63
74552;BME280;63025;55.472;38.432;2022-11-11T09:27:11;100671.72;;;8.12;87.42
74552;BME280;63025;55.472;38.432;2022-11-11T09:29:56;100681.25;;;8.15;87.77
74552;BME280;63025;55.472;38.432;2022-11-11T09:32:40;100683.19;;;8.21;87.41
74552;BME280;63025;55.472;38.432;2022-11-11T09:35:24;100684.84;;;8.22;87.25
74552;BME280;63025;55.472;38.432;2022-11-11T09:38:08;100685.84;;;8.29;87.49
74552;BME280;63025;55.472;38.432;2022-11-11T09:41:17;100697.88;;;8.33;86.87
74552;BME280;63025;55.472;38.432;2022-11-11T09:44:03;100693.34;;;8.33;86.85
74552;BME280;63025;55.472;38.432;2022-11-11T09:47:12;100699.19;;;8.37;86.77
74552;BME280;63025;55.472;38.432;2022-11-11T09:50:01;100696.16;;;8.40;86.88
74552;BME280;63025;55.472;38.432;2022-11-11T09:55:43;100696.44;;;8.45;86.36
74552;BME280;63025;55.472;38.432;2022-11-11T09:58:36;100701.44;;;8.48;86.21
74552;BME280;63025;55.472;38.432;2022-11-11T10:01:28;100702.38;;;8.55;86.04
74552;BME280;63025;55.472;38.432;2022-11-11T10:07:18;100703.69;;;8.59;85.60
74552;BME280;63025;55.472;38.432;2022-11-11T10:10:29;100699.44;;;8.65;85.65
74552;BME280;63025;55.472;38.432;2022-11-11T10:13:33;100701.78;;;8.68;85.21
74552;BME280;63025;55.472;38.432;2022-11-11T10:19:29;100706.13;;;8.69;85.10
74552;BME280;63025;55.472;38.432;2022-11-11T10:22:29;100702.97;;;8.65;84.88
74552;BME280;63025;55.472;38.432;2022-11-11T10:25:21;100696.59;;;8.66;84.84
74552;BME280;63025;55.472;38.432;2022-11-11T10:28:12;100693.56;;;8.69;85.16
74552;BME280;63025;55.472;38.432;2022-11-11T10:31:00;100691.53;;;8.71;84.93
74552;BME280;63025;55.472;38.432;2022-11-11T10:33:50;100687.66;;;8.74;84.86
74552;BME280;63025;55.472;38.432;2022-11-11T10:36:43;100682.28;;;8.74;84.58
74552;BME280;63025;55.472;38.432;2022-11-11T10:39:47;100701.34;;;8.79;84.74
74552;BME280;63025;55.472;38.432;2022-11-11T10:42:33;100706.72;;;8.79;84.60
74552;BME280;63025;55.472;38.432;2022-11-11T10:45:29;100708.72;;;8.77;84.55
74552;BME280;63025;55.472;38.432;2022-11-11T10:48:21;100701.22;;;8.72;84.26
74552;BME280;63025;55.472;38.432;2022-11-11T10:51:08;100720.81;;;8.73;84.19
74552;BME280;63025;55.472;38.432;2022-11-11T10:54:03;100723.69;;;8.71;84.24
74552;BME280;63025;55.472;38.432;2022-11-11T10:56:56;100733.75;;;8.69;84.42
74552;BME280;63025;55.472;38.432;2022-11-11T11:05:41;100735.44;;;8.70;84.67
74552;BME280;63025;55.472;38.432;2022-11-11T11:08:33;100728.41;;;8.69;84.55
74552;BME280;63025;55.472;38.432;2022-11-11T11:11:35;100735.25;;;8.72;84.71
74552;BME280;63025;55.472;38.432;2022-11-11T11:14:28;100735.44;;;8.70;84.78
74552;BME280;63025;55.472;38.432;2022-11-11T11:17:26;100736.78;;;8.66;84.52
74552;BME280;63025;55.472;38.432;2022-11-11T11:20:16;100742.16;;;8.66;84.87
74552;BME280;63025;55.472;38.432;2022-11-11T11:23:03;100745.66;;;8.67;84.64
74552;BME280;63025;55.472;38.432;2022-11-11T11:25:52;100737.63;;;8.67;84.87
74552;BME280;63025;55.472;38.432;2022-11-11T11:28:58;100741.31;;;8.66;84.97
74552;BME280;63025;55.472;38.432;2022-11-11T11:31:44;100747.69;;;8.65;84.66
74552;BME280;63025;55.472;38.432;2022-11-11T11:34:48;100738.47;;;8.67;85.11
74552;BME280;63025;55.472;38.432;2022-11-11T11:37:47;100738.81;;;8.64;85.11
74552;BME280;63025;55.472;38.432;2022-11-11T11:41:01;100742.16;;;8.66;85.07
74552;BME280;63025;55.472;38.432;2022-11-11T11:43:45;100744.66;;;8.68;84.82
74552;BME280;63025;55.472;38.432;2022-11-11T11:46:41;100745.50;;;8.68;85.09
74552;BME280;63025;55.472;38.432;2022-11-11T11:52:57;100743.47;;;8.70;84.67
74552;BME280;63025;55.472;38.432;2022-11-11T11:55:43;100748.00;;;8.70;84.68
74552;BME280;63025;55.472;38.432;2022-11-11T12:02:14;100742.63;;;8.70;84.76
74552;BME280;63025;55.472;38.432;2022-11-11T12:20:58;100745.66;;;8.67;85.26
74552;BME280;63025;55.472;38.432;2022-11-11T12:30:14;100746.50;;;8.67;84.89
74552;BME280;63025;55.472;38.432;2022-11-11T12:38:49;100745.00;;;8.65;85.10
74552;BME280;63025;55.472;38.432;2022-11-11T12:42:10;100746.50;;;8.67;85.06
74552;BME280;63025;55.472;38.432;2022-11-11T12:45:09;100743.16;;;8.65;85.08
74552;BME280;63025;55.472;38.432;2022-11-11T12:57:20;100731.91;;;8.70;84.93
74552;BME280;63025;55.472;38.432;2022-11-11T13:03:06;100728.56;;;8.68;84.92
74552;BME280;63025;55.472;38.432;2022-11-11T13:06:33;100736.63;;;8.68;85.15
74552;BME280;63025;55.472;38.432;2022-11-11T13:15:37;100732.75;;;8.70;85.01
74552;BME280;63025;55.472;38.432;2022-11-11T13:21:33;100725.06;;;8.67;85.07
74552;BME280;63025;55.472;38.432;2022-11-11T13:24:22;100731.91;;;8.70;85.09
74552;BME280;63025;55.472;38.432;2022-11-11T13:27:14;100727.38;;;8.70;85.06
74552;BME280;63025;55.472;38.432;2022-11-11T13:33:46;100725.91;;;8.68;85.28
74552;BME280;63025;55.472;38.432;2022-11-11T13:36:41;100719.69;;;8.67;85.44
74552;BME280;63025;55.472;38.432;2022-11-11T13:39:33;100729.59;;;8.67;85.32
74552;BME280;63025;55.472;38.432;2022-11-11T13:42:25;100712.00;;;8.64;85.27
74552;BME280;63025;55.472;38.432;2022-11-11T13:45:29;100709.34;;;8.64;85.60
74552;BME280;63025;55.472;38.432;2022-11-11T13:48:24;100708.50;;;8.64;85.49
74552;BME280;63025;55.472;38.432;2022-11-11T13:51:21;100708.69;;;8.62;85.80
74552;BME280;63025;55.472;38.432;2022-11-11T14:00:02;100715.06;;;8.61;85.75
74552;BME280;63025;55.472;38.432;2022-11-11T14:02:47;100719.41;;;8.62;85.79
74552;BME280;63025;55.472;38.432;2022-11-11T14:08:57;100721.44;;;8.60;85.85
74552;BME280;63025;55.472;38.432;2022-11-11T14:11:41;100726.81;;;8.60;86.36
74552;BME280;63025;55.472;38.432;2022-11-11T14:17:14;100734.84;;;8.60;86.49
74552;BME280;63025;55.472;38.432;2022-11-11T14:20:52;100737.53;;;8.60;85.98
74552;BME280;63025;55.472;38.432;2022-11-11T14:23:34;100732.50;;;8.57;86.52
74552;BME280;63025;55.472;38.432;2022-11-11T14:26:23;100733.69;;;8.55;86.15
74552;BME280;63025;55.472;38.432;2022-11-11T14:29:16;100734.53;;;8.55;86.69
74552;BME280;63025;55.472;38.432;2022-11-11T14:35:35;100729.19;;;8.55;86.71
74552;BME280;63025;55.472;38.432;2022-11-11T14:38:34;100733.69;;;8.55;86.48
74552;BME280;63025;55.472;38.432;2022-11-11T14:47:22;100722.16;;;8.54;86.57
74552;BME280;63025;55.472;38.432;2022-11-11T14:50:40;100722.16;;;8.54;86.88
74552;BME280;63025;55.472;38.432;2022-11-11T14:53:33;100725.00;;;8.53;86.62
74552;BME280;63025;55.472;38.432;2022-11-11T14:56:20;100717.16;;;8.51;86.46
74552;BME280;63025;55.472;38.432;2022-11-11T14:59:06;100716.13;;;8.52;86.49
74552;BME280;63025;55.472;38.432;2022-11-11T15:01:53;100710.16;;;8.50;86.36
74552;BME280;63025;55.472;38.432;2022-11-11T15:04:39;100719.47;;;8.54;86.48
74552;BME280;63025;55.472;38.432;2022-11-11T15:07:32;100716.63;;;8.56;86.65
74552;BME280;63025;55.472;38.432;2022-11-11T15:16:53;100709.94;;;8.52;86.28
74552;BME280;63025;55.472;38.432;2022-11-11T15:19:29;100699.03;;;8.53;86.12
74552;BME280;63025;55.472;38.432;2022-11-11T15:22:31;100696.19;;;8.55;85.80
74552;BME280;63025;55.472;38.432;2022-11-11T15:28:46;100706.06;;;8.54;85.63
74552;BME280;63025;55.472;38.432;2022-11-11T15:37:35;100707.25;;;8.52;85.52
74552;BME280;63025;55.472;38.432;2022-11-11T15:40:21;100708.09;;;8.52;85.24
74552;BME280;63025;55.472;38.432;2022-11-11T15:43:20;100703.41;;;8.54;85.19
74552;BME280;63025;55.472;38.432;2022-11-11T15:46:06;100696.38;;;8.53;85.02
74552;BME280;63025;55.472;38.432;2022-11-11T15:48:50;100691.66;;;8.55;84.76
74552;BME280;63025;55.472;38.432;2022-11-11T15:51:35;100692.84;;;8.53;84.88
74552;BME280;63025;55.472;38.432;2022-11-11T15:54:20;100700.72;;;8.54;84.77
74552;BME280;63025;55.472;38.432;2022-11-11T16:00:24;100700.38;;;8.57;84.41
74552;BME280;63025;55.472;38.432;2022-11-11T16:03:18;100699.34;;;8.58;83.89
74552;BME280;63025;55.472;38.432;2022-11-11T16:06:07;100693.16;;;8.58;83.84
74552;BME280;63025;55.472;38.432;2022-11-11T16:08:53;100691.66;;;8.55;84.10
74552;BME280;63025;55.472;38.432;2022-11-11T16:11:40;100699.53;;;8.57;83.63
74552;BME280;63025;55.472;38.432;2022-11-11T16:14:39;100704.06;;;8.56;84.17
74552;BME280;63025;55.472;38.432;2022-11-11T16:17:38;100703.22;;;8.56;83.97
74552;BME280;63025;55.472;38.432;2022-11-11T16:20:29;100707.75;;;8.55;83.59
74552;BME280;63025;55.472;38.432;2022-11-11T16:23:17;100714.78;;;8.56;83.76
74552;BME280;63025;55.472;38.432;2022-11-11T16:26:02;100715.59;;;8.57;83.04
74552;BME280;63025;55.472;38.432;2022-11-11T16:28:55;100712.75;;;8.58;83.10
74552;BME280;63025;55.472;38.432;2022-11-11T16:31:42;100714.41;;;8.59;82.89
74552;BME280;63025;55.472;38.432;2022-11-11T16:37:13;100721.44;;;8.60;83.01
74552;BME280;63025;55.472;38.432;2022-11-11T16:40:33;100717.75;;;8.61;82.76
74552;BME280;63025;55.472;38.432;2022-11-11T16:43:26;100718.09;;;8.58;82.85
74552;BME280;63025;55.472;38.432;2022-11-11T16:46:13;100719.28;;;8.56;82.83
74552;BME280;63025;55.472;38.432;2022-11-11T16:49:00;100721.78;;;8.57;82.42
74552;BME280;63025;55.472;38.432;2022-11-11T16:51:55;100724.13;;;8.60;82.32